Terminal Aerodrome Forecast
Issued by NWS Atlanta, GA

Home | Current Version | Previous Version | Text Only | Print | Product List | Glossary On
Versions: 1 2 3 4 5 6 7 8 9 10 11 12 13 14 15 16 17
000
FTUS42 KFFC 011122
TAFCSG
TAF
KCSG 011122Z 0112/0212 08010KT 4SM -RADZ OVC008
     FM011900 08005KT 6SM BR BKN008
     FM020200 00000KT 2SM -DZ OVC004=

USA.gov is the U.S. government's official web portal to all federal, state and local government web resources and services.